createdAt,value
2023-02-19T00:00:55.000Z,281.14
2023-02-19T00:02:22.000Z,281.14
2023-02-19T00:04:28.000Z,281.11
2023-02-19T00:05:55.000Z,281.11
2023-02-19T00:08:01.000Z,281.11
2023-02-19T00:09:27.000Z,281.11
2023-02-19T00:11:33.000Z,281.14
2023-02-19T00:13:00.000Z,281.12
2023-02-19T00:15:06.000Z,281.14
2023-02-19T00:16:33.000Z,281.11
2023-02-19T00:18:39.000Z,281.11
2023-02-19T00:20:05.000Z,281.1
2023-02-19T00:22:11.000Z,281.08
2023-02-19T00:23:38.000Z,281.07
2023-02-19T00:25:44.000Z,281.05
2023-02-19T00:27:10.000Z,281.04
2023-02-19T00:29:17.000Z,281.04
2023-02-19T00:30:43.000Z,281.03
2023-02-19T00:32:49.000Z,281.01
2023-02-19T00:34:16.000Z,281
2023-02-19T00:36:22.000Z,281.01
2023-02-19T00:39:13.000Z,280.98
2023-02-19T00:40:40.000Z,280.97
2023-02-19T00:42:46.000Z,280.97
2023-02-19T00:44:12.000Z,280.96
2023-02-19T00:46:19.000Z,280.96
2023-02-19T00:47:45.000Z,280.94
2023-02-19T00:49:51.000Z,280.96
2023-02-19T00:51:18.000Z,280.94
2023-02-19T00:53:24.000Z,280.96
2023-02-19T00:54:50.000Z,280.94
2023-02-19T00:56:56.000Z,280.94
2023-02-19T00:58:23.000Z,280.94
2023-02-19T01:00:29.000Z,280.96
2023-02-19T01:01:55.000Z,280.96
2023-02-19T01:04:02.000Z,280.97
2023-02-19T01:05:30.000Z,280.96
2023-02-19T01:07:36.000Z,280.97
2023-02-19T01:09:03.000Z,280.96
2023-02-19T01:11:09.000Z,280.96
2023-02-19T01:12:36.000Z,280.97
2023-02-19T01:14:42.000Z,280.97
2023-02-19T01:17:33.000Z,280.97
2023-02-19T01:18:59.000Z,280.96
2023-02-19T01:21:05.000Z,280.96
2023-02-19T01:22:32.000Z,280.94
2023-02-19T01:24:38.000Z,280.94
2023-02-19T01:26:05.000Z,280.91
2023-02-19T01:28:11.000Z,280.93
2023-02-19T01:29:37.000Z,280.93
2023-02-19T01:31:43.000Z,280.94
2023-02-19T01:33:10.000Z,280.93
2023-02-19T01:35:16.000Z,280.94
2023-02-19T01:36:43.000Z,280.94
2023-02-19T01:38:49.000Z,280.94
2023-02-19T01:40:15.000Z,280.94
2023-02-19T01:42:21.000Z,280.93
2023-02-19T01:43:48.000Z,280.93
2023-02-19T01:45:54.000Z,280.93
2023-02-19T01:47:20.000Z,280.94
2023-02-19T01:49:26.000Z,280.97
2023-02-19T01:50:53.000Z,281.03
2023-02-19T01:52:59.000Z,281.04
2023-02-19T01:55:50.000Z,281.04
2023-02-19T01:57:16.000Z,281.07
2023-02-19T01:59:22.000Z,281.07
2023-02-19T02:00:49.000Z,281.07
2023-02-19T02:02:55.000Z,281.04
2023-02-19T02:04:22.000Z,281.05
2023-02-19T02:06:28.000Z,281.04
2023-02-19T02:07:54.000Z,281.07
2023-02-19T02:10:00.000Z,281.07
2023-02-19T02:11:27.000Z,281.08
2023-02-19T02:13:33.000Z,281.11
2023-02-19T02:15:00.000Z,281.1
2023-02-19T02:17:06.000Z,281.1
2023-02-19T02:18:33.000Z,281.1
2023-02-19T02:20:39.000Z,281.1
2023-02-19T02:22:05.000Z,281.11
2023-02-19T02:24:11.000Z,281.12
2023-02-19T02:25:38.000Z,281.12
2023-02-19T02:27:44.000Z,281.12
2023-02-19T02:29:11.000Z,281.14
2023-02-19T02:31:17.000Z,281.14
2023-02-19T02:34:08.000Z,281.15
2023-02-19T02:35:35.000Z,281.14
2023-02-19T02:37:41.000Z,281.12
2023-02-19T02:39:07.000Z,281.12
2023-02-19T02:41:13.000Z,281.14
2023-02-19T02:42:40.000Z,281.12
2023-02-19T02:44:46.000Z,281.12
2023-02-19T02:46:13.000Z,281.11
2023-02-19T02:48:19.000Z,281.14
2023-02-19T02:49:45.000Z,281.15
2023-02-19T02:51:51.000Z,281.16
2023-02-19T02:53:18.000Z,281.18
2023-02-19T02:55:24.000Z,281.18
2023-02-19T02:56:50.000Z,281.16
2023-02-19T02:58:57.000Z,281.16
2023-02-19T03:00:23.000Z,281.16
2023-02-19T03:02:29.000Z,281.18
2023-02-19T03:03:56.000Z,281.19
2023-02-19T03:06:02.000Z,281.21
2023-02-19T03:07:29.000Z,281.28
2023-02-19T03:09:35.000Z,281.29
2023-02-19T03:12:26.000Z,281.32
2023-02-19T03:13:52.000Z,281.3
2023-02-19T03:15:59.000Z,281.3
2023-02-19T03:17:25.000Z,281.33
2023-02-19T03:19:31.000Z,281.36
2023-02-19T03:20:58.000Z,281.37
2023-02-19T03:23:04.000Z,281.4
2023-02-19T03:24:30.000Z,281.42
2023-02-19T03:26:37.000Z,281.43
2023-02-19T03:28:03.000Z,281.48
2023-02-19T03:30:09.000Z,281.48
2023-02-19T03:31:36.000Z,281.49
2023-02-19T03:33:42.000Z,281.49
2023-02-19T03:35:09.000Z,281.52
2023-02-19T03:37:15.000Z,281.54
2023-02-19T03:38:41.000Z,281.56
2023-02-19T03:40:47.000Z,281.55
2023-02-19T03:42:14.000Z,281.52
2023-02-19T03:44:20.000Z,281.51
2023-02-19T03:45:47.000Z,281.54
2023-02-19T03:47:53.000Z,281.55
2023-02-19T03:50:44.000Z,281.55
2023-02-19T03:52:11.000Z,281.54
2023-02-19T03:54:17.000Z,281.54
2023-02-19T03:55:43.000Z,281.54
2023-02-19T03:57:49.000Z,281.54
2023-02-19T03:59:16.000Z,281.55
2023-02-19T04:01:22.000Z,281.56
2023-02-19T04:02:49.000Z,281.58
2023-02-19T04:04:55.000Z,281.55
2023-02-19T04:06:21.000Z,281.55
2023-02-19T04:08:27.000Z,281.56
2023-02-19T04:09:54.000Z,281.62
2023-02-19T04:12:00.000Z,281.63
2023-02-19T04:13:27.000Z,281.62
2023-02-19T04:15:33.000Z,281.62
2023-02-19T04:16:59.000Z,281.62
2023-02-19T04:19:05.000Z,281.62
2023-02-19T04:20:32.000Z,281.61
2023-02-19T04:22:38.000Z,281.61
2023-02-19T04:24:05.000Z,281.62
2023-02-19T04:26:11.000Z,281.62
2023-02-19T04:29:02.000Z,281.59
2023-02-19T04:30:29.000Z,281.58
2023-02-19T04:32:35.000Z,281.59
2023-02-19T04:34:02.000Z,281.61
2023-02-19T04:36:08.000Z,281.61
2023-02-19T04:37:34.000Z,281.59
2023-02-19T04:39:40.000Z,281.56
2023-02-19T04:41:07.000Z,281.58
2023-02-19T04:43:13.000Z,281.58
2023-02-19T04:44:40.000Z,281.59
2023-02-19T04:46:46.000Z,281.58
2023-02-19T04:48:12.000Z,281.56
2023-02-19T04:50:18.000Z,281.56
2023-02-19T04:51:45.000Z,281.55
2023-02-19T04:53:51.000Z,281.52
2023-02-19T04:55:18.000Z,281.52
2023-02-19T04:57:24.000Z,281.52
2023-02-19T04:58:50.000Z,281.49
2023-02-19T05:00:57.000Z,281.48
2023-02-19T05:02:23.000Z,281.47
2023-02-19T05:04:29.000Z,281.47
2023-02-19T05:07:20.000Z,281.47
2023-02-19T05:08:47.000Z,281.43
2023-02-19T05:10:53.000Z,281.45
2023-02-19T05:12:19.000Z,281.43
2023-02-19T05:14:25.000Z,281.45
2023-02-19T05:15:52.000Z,281.42
2023-02-19T05:17:58.000Z,281.39
2023-02-19T05:19:25.000Z,281.37
2023-02-19T05:21:31.000Z,281.36
2023-02-19T05:22:57.000Z,281.37
2023-02-19T05:25:03.000Z,281.39
2023-02-19T05:26:30.000Z,281.37
2023-02-19T05:28:36.000Z,281.36
2023-02-19T05:30:02.000Z,281.35
2023-02-19T05:32:09.000Z,281.33
2023-02-19T05:33:35.000Z,281.32
2023-02-19T05:35:41.000Z,281.32
2023-02-19T05:37:08.000Z,281.32
2023-02-19T05:39:14.000Z,281.29
2023-02-19T05:40:41.000Z,281.26
2023-02-19T05:42:47.000Z,281.26
2023-02-19T05:45:38.000Z,281.25
2023-02-19T05:47:05.000Z,281.23
2023-02-19T05:49:11.000Z,281.21
2023-02-19T05:50:37.000Z,281.18
2023-02-19T05:52:45.000Z,281.18
2023-02-19T05:54:12.000Z,281.16
2023-02-19T05:56:18.000Z,281.15
2023-02-19T05:57:45.000Z,281.15
2023-02-19T05:59:51.000Z,281.14
2023-02-19T06:01:17.000Z,281.12
2023-02-19T06:03:23.000Z,281.11
2023-02-19T06:04:50.000Z,281.14
2023-02-19T06:06:56.000Z,281.12
2023-02-19T06:08:23.000Z,281.15
2023-02-19T06:10:29.000Z,281.16
2023-02-19T06:11:55.000Z,281.18
2023-02-19T06:14:01.000Z,281.18
2023-02-19T06:15:28.000Z,281.19
2023-02-19T06:17:34.000Z,281.18
2023-02-19T06:19:01.000Z,281.19
2023-02-19T06:21:07.000Z,281.19
2023-02-19T06:23:58.000Z,281.19
2023-02-19T06:25:24.000Z,281.19
2023-02-19T06:27:31.000Z,281.19
2023-02-19T06:28:57.000Z,281.19
2023-02-19T06:31:03.000Z,281.21
2023-02-19T06:32:30.000Z,281.18
2023-02-19T06:34:36.000Z,281.19
2023-02-19T06:36:03.000Z,281.19
2023-02-19T06:38:09.000Z,281.19
2023-02-19T06:39:35.000Z,281.21
2023-02-19T06:41:41.000Z,281.19
2023-02-19T06:43:08.000Z,281.21
2023-02-19T06:45:14.000Z,281.22
2023-02-19T06:46:40.000Z,281.19
2023-02-19T06:48:47.000Z,281.19
2023-02-19T06:50:13.000Z,281.18
2023-02-19T06:52:19.000Z,281.18
2023-02-19T06:53:46.000Z,281.16
2023-02-19T06:55:52.000Z,281.18
2023-02-19T06:57:18.000Z,281.18
2023-02-19T06:59:25.000Z,281.15
2023-02-19T07:02:16.000Z,281.14
2023-02-19T07:03:43.000Z,281.12
2023-02-19T07:05:49.000Z,281.14
2023-02-19T07:07:15.000Z,281.11
2023-02-19T07:09:21.000Z,281.11
2023-02-19T07:10:48.000Z,281.08
2023-02-19T07:12:54.000Z,281.07
2023-02-19T07:14:21.000Z,281.11
2023-02-19T07:16:27.000Z,281.12
2023-02-19T07:17:53.000Z,281.12
2023-02-19T07:19:59.000Z,281.14
2023-02-19T07:21:26.000Z,281.16
2023-02-19T07:23:32.000Z,281.19
2023-02-19T07:24:59.000Z,281.22
2023-02-19T07:27:05.000Z,281.25
2023-02-19T07:28:31.000Z,281.26
2023-02-19T07:30:38.000Z,281.28
2023-02-19T07:32:04.000Z,281.29
2023-02-19T07:34:10.000Z,281.29
2023-02-19T07:35:37.000Z,281.3
2023-02-19T07:37:43.000Z,281.3
2023-02-19T07:40:34.000Z,281.3
2023-02-19T07:42:01.000Z,281.29
2023-02-19T07:44:07.000Z,281.3
2023-02-19T07:45:33.000Z,281.29
2023-02-19T07:47:39.000Z,281.33
2023-02-19T07:49:06.000Z,281.35
2023-02-19T07:51:12.000Z,281.33
2023-02-19T07:52:39.000Z,281.36
2023-02-19T07:54:45.000Z,281.37
2023-02-19T07:56:12.000Z,281.39
2023-02-19T07:58:18.000Z,281.42
2023-02-19T07:59:44.000Z,281.47
2023-02-19T08:01:50.000Z,281.49
2023-02-19T08:03:17.000Z,281.52
2023-02-19T08:05:23.000Z,281.55
2023-02-19T08:06:50.000Z,281.58
2023-02-19T08:08:56.000Z,281.59
2023-02-19T08:10:23.000Z,281.61
2023-02-19T08:12:29.000Z,281.61
2023-02-19T08:13:56.000Z,281.61
2023-02-19T08:16:02.000Z,281.62
2023-02-19T08:19:09.000Z,281.58
2023-02-19T08:20:36.000Z,281.59
2023-02-19T08:22:42.000Z,281.59
2023-02-19T08:24:08.000Z,281.58
2023-02-19T08:26:14.000Z,281.54
2023-02-19T08:27:41.000Z,281.56
2023-02-19T08:29:47.000Z,281.55
2023-02-19T08:31:14.000Z,281.55
2023-02-19T08:33:20.000Z,281.56
2023-02-19T08:34:47.000Z,281.58
2023-02-19T08:36:53.000Z,281.58
2023-02-19T08:38:20.000Z,281.62
2023-02-19T08:40:26.000Z,281.65
2023-02-19T08:41:52.000Z,281.68
2023-02-19T08:43:58.000Z,281.69
2023-02-19T08:45:25.000Z,281.7
2023-02-19T08:47:31.000Z,281.73
2023-02-19T08:48:57.000Z,281.75
2023-02-19T08:51:04.000Z,281.75
2023-02-19T08:52:30.000Z,281.79
2023-02-19T08:54:36.000Z,281.84
2023-02-19T08:57:28.000Z,281.87
2023-02-19T08:58:54.000Z,281.89
2023-02-19T09:01:00.000Z,281.91
2023-02-19T09:02:27.000Z,281.91
2023-02-19T09:04:33.000Z,281.92
2023-02-19T09:06:00.000Z,281.95
2023-02-19T09:08:06.000Z,281.92
2023-02-19T09:09:33.000Z,281.94
2023-02-19T09:11:39.000Z,281.91
2023-02-19T09:13:05.000Z,281.92
2023-02-19T09:15:11.000Z,281.94
2023-02-19T09:16:38.000Z,281.98
2023-02-19T09:18:44.000Z,282.02
2023-02-19T09:20:11.000Z,282.05
2023-02-19T09:22:17.000Z,282.06
2023-02-19T09:23:43.000Z,282.06
2023-02-19T09:25:49.000Z,282.05
2023-02-19T09:27:16.000Z,282.06
2023-02-19T09:29:22.000Z,282.08
2023-02-19T09:30:49.000Z,282.08
2023-02-19T09:32:55.000Z,282.08
2023-02-19T09:35:46.000Z,282.09
2023-02-19T09:37:13.000Z,282.1
2023-02-19T09:39:19.000Z,282.12
2023-02-19T09:40:45.000Z,282.12
2023-02-19T09:42:52.000Z,282.14
2023-02-19T09:44:18.000Z,282.12
2023-02-19T09:46:24.000Z,282.1
2023-02-19T09:47:51.000Z,282.09
2023-02-19T09:49:57.000Z,282.14
2023-02-19T09:51:24.000Z,282.26
2023-02-19T09:53:30.000Z,282.35
2023-02-19T09:54:56.000Z,282.42
2023-02-19T09:57:03.000Z,282.49
2023-02-19T09:58:29.000Z,282.56
2023-02-19T10:00:36.000Z,282.53
2023-02-19T10:02:02.000Z,282.53
2023-02-19T10:04:08.000Z,282.56
2023-02-19T10:05:35.000Z,282.61
2023-02-19T10:07:41.000Z,282.66
2023-02-19T10:09:08.000Z,282.73
2023-02-19T10:11:14.000Z,282.78
2023-02-19T10:14:05.000Z,282.88
2023-02-19T10:15:32.000Z,282.92
2023-02-19T10:17:38.000Z,282.99
2023-02-19T10:19:04.000Z,283.13
2023-02-19T10:21:10.000Z,283.17
2023-02-19T10:22:37.000Z,283.25
2023-02-19T10:24:44.000Z,283.29
2023-02-19T10:26:10.000Z,283.3
2023-02-19T10:28:16.000Z,283.23
2023-02-19T10:29:43.000Z,283.17
2023-02-19T10:31:49.000Z,283.11
2023-02-19T10:33:16.000Z,283.07
2023-02-19T10:35:22.000Z,283.03
2023-02-19T10:36:48.000Z,283
2023-02-19T10:38:55.000Z,283.05
2023-02-19T10:40:21.000Z,283.11
2023-02-19T10:42:27.000Z,283.11
2023-02-19T10:43:54.000Z,283.1
2023-02-19T10:46:00.000Z,283.11
2023-02-19T10:47:27.000Z,283.11
2023-02-19T10:49:33.000Z,283.18
2023-02-19T10:52:24.000Z,283.27
2023-02-19T10:53:50.000Z,283.36
2023-02-19T10:55:57.000Z,283.36
2023-02-19T10:57:23.000Z,283.4
2023-02-19T10:59:29.000Z,283.48
2023-02-19T11:00:56.000Z,283.52
2023-02-19T11:03:02.000Z,283.62
2023-02-19T11:04:28.000Z,283.59
2023-02-19T11:06:35.000Z,283.62
2023-02-19T11:08:01.000Z,283.54
2023-02-19T11:10:07.000Z,283.57
2023-02-19T11:11:34.000Z,283.54
2023-02-19T11:13:40.000Z,283.57
2023-02-19T11:15:07.000Z,283.59
2023-02-19T11:17:13.000Z,283.48
2023-02-19T11:18:39.000Z,283.5
2023-02-19T11:20:46.000Z,283.44
2023-02-19T11:22:12.000Z,283.4
2023-02-19T11:24:18.000Z,283.43
2023-02-19T11:25:45.000Z,283.36
2023-02-19T11:27:51.000Z,283.37
2023-02-19T11:30:42.000Z,283.59
2023-02-19T11:32:09.000Z,283.65
2023-02-19T11:34:15.000Z,283.64
2023-02-19T11:35:42.000Z,283.61
2023-02-19T11:37:48.000Z,283.59
2023-02-19T11:39:15.000Z,283.52
2023-02-19T11:41:21.000Z,283.51
2023-02-19T11:42:47.000Z,283.5
2023-02-19T11:44:53.000Z,283.59
2023-02-19T11:46:20.000Z,283.64
2023-02-19T11:48:26.000Z,283.59
2023-02-19T11:49:54.000Z,283.59
2023-02-19T11:52:00.000Z,283.68
2023-02-19T11:53:27.000Z,283.76
2023-02-19T11:55:33.000Z,283.8
2023-02-19T11:56:59.000Z,283.77
2023-02-19T11:59:05.000Z,283.75
2023-02-19T12:00:32.000Z,283.59
2023-02-19T12:02:38.000Z,283.51
2023-02-19T12:04:04.000Z,283.41
2023-02-19T12:06:11.000Z,283.37
2023-02-19T12:09:02.000Z,283.26
2023-02-19T12:10:29.000Z,283.26
2023-02-19T12:12:35.000Z,283.26
2023-02-19T12:14:04.000Z,283.25
2023-02-19T12:16:10.000Z,283.17
2023-02-19T12:17:37.000Z,283.16
2023-02-19T12:19:43.000Z,283.14
2023-02-19T12:21:09.000Z,283.07
2023-02-19T12:23:16.000Z,283.05
2023-02-19T12:24:42.000Z,283.06
2023-02-19T12:26:49.000Z,283.13
2023-02-19T12:28:15.000Z,283.17
2023-02-19T12:30:21.000Z,283.14
2023-02-19T12:31:48.000Z,283.06
2023-02-19T12:33:54.000Z,282.99
2023-02-19T12:35:21.000Z,282.96
2023-02-19T12:37:27.000Z,282.93
2023-02-19T12:38:53.000Z,282.99
2023-02-19T12:40:59.000Z,283.03
2023-02-19T12:42:26.000Z,283.06
2023-02-19T12:44:32.000Z,283.03
2023-02-19T12:47:23.000Z,283
2023-02-19T12:48:50.000Z,282.98
2023-02-19T12:50:56.000Z,282.95
2023-02-19T12:52:23.000Z,282.92
2023-02-19T12:54:29.000Z,282.91
2023-02-19T12:55:55.000Z,282.89
2023-02-19T12:58:01.000Z,282.88
2023-02-19T12:59:28.000Z,282.88
2023-02-19T13:01:34.000Z,282.88
2023-02-19T13:03:01.000Z,282.85
2023-02-19T13:05:07.000Z,282.86
2023-02-19T13:06:33.000Z,282.81
2023-02-19T13:08:39.000Z,282.78
2023-02-19T13:10:19.000Z,282.75
2023-02-19T13:12:25.000Z,282.73
2023-02-19T13:13:52.000Z,282.71
2023-02-19T13:15:58.000Z,282.73
2023-02-19T13:17:24.000Z,282.74
2023-02-19T13:19:30.000Z,282.81
2023-02-19T13:20:57.000Z,282.88
2023-02-19T13:23:03.000Z,282.92
2023-02-19T13:25:54.000Z,282.96
2023-02-19T13:27:23.000Z,282.93
2023-02-19T13:29:29.000Z,283.05
2023-02-19T13:30:56.000Z,283.11
2023-02-19T13:33:02.000Z,283.11
2023-02-19T13:34:29.000Z,283.09
2023-02-19T13:36:35.000Z,283.11
2023-02-19T13:38:01.000Z,283.17
2023-02-19T13:40:08.000Z,283.27
2023-02-19T13:41:34.000Z,283.34
2023-02-19T13:43:41.000Z,283.32
2023-02-19T13:45:07.000Z,283.27
2023-02-19T13:47:13.000Z,283.25
2023-02-19T13:48:40.000Z,283.25
2023-02-19T13:50:46.000Z,283.29
2023-02-19T13:52:12.000Z,283.29
2023-02-19T13:54:18.000Z,283.3
2023-02-19T13:55:45.000Z,283.3
2023-02-19T13:57:51.000Z,283.32
2023-02-19T13:59:18.000Z,283.27
2023-02-19T14:01:24.000Z,283.22
2023-02-19T14:04:15.000Z,283.22
2023-02-19T14:05:42.000Z,283.22
2023-02-19T14:07:48.000Z,283.22
2023-02-19T14:09:14.000Z,283.17
2023-02-19T14:11:20.000Z,283.16
2023-02-19T14:12:47.000Z,283.13
2023-02-19T14:14:53.000Z,283.17
2023-02-19T14:16:20.000Z,283.16
2023-02-19T14:18:26.000Z,283.11
2023-02-19T14:19:52.000Z,283.02
2023-02-19T14:21:58.000Z,282.99
2023-02-19T14:23:25.000Z,283.02
2023-02-19T14:25:31.000Z,283.07
2023-02-19T14:26:58.000Z,283.11
2023-02-19T14:29:04.000Z,283.17
2023-02-19T14:30:30.000Z,283.22
2023-02-19T14:32:37.000Z,283.18
2023-02-19T14:34:03.000Z,283.17
2023-02-19T14:36:09.000Z,283.17
2023-02-19T14:37:36.000Z,283.13
2023-02-19T14:39:42.000Z,283.09
2023-02-19T14:42:33.000Z,283.11
2023-02-19T14:44:00.000Z,283.14
2023-02-19T14:46:06.000Z,283.17
2023-02-19T14:47:32.000Z,283.11
2023-02-19T14:49:38.000Z,283.02
2023-02-19T14:51:05.000Z,282.98
2023-02-19T14:53:11.000Z,282.95
2023-02-19T14:54:37.000Z,282.88
2023-02-19T14:56:44.000Z,282.85
2023-02-19T14:58:10.000Z,282.78
2023-02-19T15:00:16.000Z,282.73
2023-02-19T15:01:43.000Z,282.67
2023-02-19T15:03:49.000Z,282.6
2023-02-19T15:05:16.000Z,282.54
2023-02-19T15:07:22.000Z,282.52
2023-02-19T15:08:48.000Z,282.5
2023-02-19T15:10:54.000Z,282.5
2023-02-19T15:12:21.000Z,282.5
2023-02-19T15:14:27.000Z,282.52
2023-02-19T15:15:54.000Z,282.47
2023-02-19T15:18:00.000Z,282.45
2023-02-19T15:20:51.000Z,282.41
2023-02-19T15:22:18.000Z,282.39
2023-02-19T15:24:24.000Z,282.38
2023-02-19T15:25:51.000Z,282.35
2023-02-19T15:27:57.000Z,282.3
2023-02-19T15:29:23.000Z,282.31
2023-02-19T15:31:29.000Z,282.3
2023-02-19T15:32:56.000Z,282.28
2023-02-19T15:35:02.000Z,282.27
2023-02-19T15:36:29.000Z,282.26
2023-02-19T15:38:35.000Z,282.2
2023-02-19T15:40:02.000Z,282.13
2023-02-19T15:42:08.000Z,282.08
2023-02-19T15:43:35.000Z,282.01
2023-02-19T15:45:41.000Z,281.95
2023-02-19T15:47:08.000Z,281.91
2023-02-19T15:49:14.000Z,281.89
2023-02-19T15:50:40.000Z,281.84
2023-02-19T15:52:46.000Z,281.81
2023-02-19T15:54:13.000Z,281.77
2023-02-19T15:56:19.000Z,281.75
2023-02-19T15:59:10.000Z,281.72
2023-02-19T16:00:37.000Z,281.72
2023-02-19T16:02:43.000Z,281.72
2023-02-19T16:04:10.000Z,281.69
2023-02-19T16:06:16.000Z,281.65
2023-02-19T16:07:42.000Z,281.63
2023-02-19T16:09:49.000Z,281.61
2023-02-19T16:11:15.000Z,281.55
2023-02-19T16:13:21.000Z,281.54
2023-02-19T16:14:48.000Z,281.48
2023-02-19T16:16:54.000Z,281.47
2023-02-19T16:18:20.000Z,281.47
2023-02-19T16:20:26.000Z,281.43
2023-02-19T16:21:53.000Z,281.4
2023-02-19T16:23:59.000Z,281.37
2023-02-19T16:25:25.000Z,281.36
2023-02-19T16:27:32.000Z,281.32
2023-02-19T16:28:58.000Z,281.29
2023-02-19T16:31:04.000Z,281.28
2023-02-19T16:32:31.000Z,281.26
2023-02-19T16:34:37.000Z,281.25
2023-02-19T16:37:28.000Z,281.18
2023-02-19T16:38:55.000Z,281.18
2023-02-19T16:41:01.000Z,281.15
2023-02-19T16:42:28.000Z,281.14
2023-02-19T16:44:34.000Z,281.14
2023-02-19T16:46:00.000Z,281.12
2023-02-19T16:48:07.000Z,281.12
2023-02-19T16:49:33.000Z,281.12
2023-02-19T16:51:39.000Z,281.11
2023-02-19T16:53:06.000Z,281.1
2023-02-19T16:55:12.000Z,281.08
2023-02-19T16:56:38.000Z,281.1
2023-02-19T16:58:45.000Z,281.08
2023-02-19T17:00:11.000Z,281.11
2023-02-19T17:02:17.000Z,281.1
2023-02-19T17:03:44.000Z,281.08
2023-02-19T17:05:50.000Z,281.08
2023-02-19T17:07:16.000Z,281.07
2023-02-19T17:09:23.000Z,281.07
2023-02-19T17:10:49.000Z,281.05
2023-02-19T17:12:55.000Z,281.05
2023-02-19T17:15:47.000Z,281.05
2023-02-19T17:17:13.000Z,281.04
2023-02-19T17:19:19.000Z,281.03
2023-02-19T17:20:46.000Z,281.01
2023-02-19T17:22:52.000Z,281.01
2023-02-19T17:24:19.000Z,281
2023-02-19T17:26:25.000Z,281.01
2023-02-19T17:27:51.000Z,281
2023-02-19T17:29:57.000Z,280.98
2023-02-19T17:31:24.000Z,280.97
2023-02-19T17:33:30.000Z,280.97
2023-02-19T17:34:57.000Z,280.96
2023-02-19T17:37:03.000Z,280.94
2023-02-19T17:38:29.000Z,280.91
2023-02-19T17:40:35.000Z,280.9
2023-02-19T17:42:02.000Z,280.89
2023-02-19T17:44:08.000Z,280.87
2023-02-19T17:45:35.000Z,280.87
2023-02-19T17:47:41.000Z,280.87
2023-02-19T17:49:08.000Z,280.87
2023-02-19T17:51:14.000Z,280.89
2023-02-19T17:54:05.000Z,280.91
2023-02-19T17:55:34.000Z,280.93
2023-02-19T17:57:40.000Z,280.94
2023-02-19T17:59:07.000Z,280.94
2023-02-19T18:01:13.000Z,280.96
2023-02-19T18:02:40.000Z,280.97
2023-02-19T18:04:46.000Z,280.96
2023-02-19T18:06:13.000Z,280.97
2023-02-19T18:08:19.000Z,280.97
2023-02-19T18:09:45.000Z,280.94
2023-02-19T18:11:51.000Z,280.94
2023-02-19T18:13:18.000Z,280.96
2023-02-19T18:15:24.000Z,280.94
2023-02-19T18:16:50.000Z,280.93
2023-02-19T18:18:57.000Z,280.91
2023-02-19T18:20:24.000Z,280.89
2023-02-19T18:22:30.000Z,280.86
2023-02-19T18:23:56.000Z,280.83
2023-02-19T18:26:03.000Z,280.79
2023-02-19T18:27:29.000Z,280.75
2023-02-19T18:29:35.000Z,280.72
2023-02-19T18:32:26.000Z,280.65
2023-02-19T18:33:53.000Z,280.62
2023-02-19T18:35:59.000Z,280.56
2023-02-19T18:37:25.000Z,280.56
2023-02-19T18:39:31.000Z,280.54
2023-02-19T18:40:58.000Z,280.5
2023-02-19T18:43:04.000Z,280.49
2023-02-19T18:44:31.000Z,280.47
2023-02-19T18:46:37.000Z,280.45
2023-02-19T18:48:04.000Z,280.4
2023-02-19T18:50:10.000Z,280.37
2023-02-19T18:51:36.000Z,280.34
2023-02-19T18:53:43.000Z,280.3
2023-02-19T18:55:09.000Z,280.28
2023-02-19T18:57:15.000Z,280.25
2023-02-19T18:58:42.000Z,280.24
2023-02-19T19:00:48.000Z,280.24
2023-02-19T19:02:14.000Z,280.23
2023-02-19T19:04:20.000Z,280.24
2023-02-19T19:05:47.000Z,280.23
2023-02-19T19:07:53.000Z,280.24
2023-02-19T19:10:44.000Z,280.23
2023-02-19T19:12:11.000Z,280.21
2023-02-19T19:14:17.000Z,280.18
2023-02-19T19:15:43.000Z,280.17
2023-02-19T19:17:49.000Z,280.17
2023-02-19T19:19:16.000Z,280.17
2023-02-19T19:21:23.000Z,280.17
2023-02-19T19:22:49.000Z,280.14
2023-02-19T19:24:56.000Z,280.16
2023-02-19T19:26:22.000Z,280.16
2023-02-19T19:28:28.000Z,280.16
2023-02-19T19:29:55.000Z,280.17
2023-02-19T19:32:01.000Z,280.17
2023-02-19T19:33:27.000Z,280.17
2023-02-19T19:35:34.000Z,280.16
2023-02-19T19:37:00.000Z,280.16
2023-02-19T19:39:06.000Z,280.17
2023-02-19T19:40:33.000Z,280.17
2023-02-19T19:42:39.000Z,280.18
2023-02-19T19:44:06.000Z,280.18
2023-02-19T19:46:12.000Z,280.2
2023-02-19T19:49:03.000Z,280.18
2023-02-19T19:50:29.000Z,280.18
2023-02-19T19:52:35.000Z,280.17
2023-02-19T19:54:02.000Z,280.17
2023-02-19T19:56:08.000Z,280.16
2023-02-19T19:57:35.000Z,280.14
2023-02-19T19:59:41.000Z,280.17
2023-02-19T20:01:07.000Z,280.17
2023-02-19T20:03:13.000Z,280.17
2023-02-19T20:04:40.000Z,280.16
2023-02-19T20:06:46.000Z,280.18
2023-02-19T20:08:13.000Z,280.2
2023-02-19T20:10:19.000Z,280.21
2023-02-19T20:11:45.000Z,280.21
2023-02-19T20:13:51.000Z,280.23
2023-02-19T20:15:18.000Z,280.21
2023-02-19T20:17:24.000Z,280.2
2023-02-19T20:18:51.000Z,280.2
2023-02-19T20:20:57.000Z,280.21
2023-02-19T20:22:23.000Z,280.21
2023-02-19T20:24:29.000Z,280.23
2023-02-19T20:27:21.000Z,280.24
2023-02-19T20:28:47.000Z,280.23
2023-02-19T20:30:53.000Z,280.24
2023-02-19T20:32:20.000Z,280.25
2023-02-19T20:34:26.000Z,280.24
2023-02-19T20:35:53.000Z,280.27
2023-02-19T20:37:59.000Z,280.27
2023-02-19T20:39:25.000Z,280.24
2023-02-19T20:41:31.000Z,280.25
2023-02-19T20:42:58.000Z,280.25
2023-02-19T20:45:04.000Z,280.25
2023-02-19T20:46:31.000Z,280.24
2023-02-19T20:48:37.000Z,280.24
2023-02-19T20:50:03.000Z,280.23
2023-02-19T20:52:10.000Z,280.21
2023-02-19T20:53:36.000Z,280.2
2023-02-19T20:55:42.000Z,280.21
2023-02-19T20:57:09.000Z,280.21
2023-02-19T20:59:15.000Z,280.2
2023-02-19T21:00:41.000Z,280.21
2023-02-19T21:02:47.000Z,280.21
2023-02-19T21:05:39.000Z,280.2
2023-02-19T21:07:06.000Z,280.2
2023-02-19T21:09:12.000Z,280.2
2023-02-19T21:10:38.000Z,280.18
2023-02-19T21:12:44.000Z,280.17
2023-02-19T21:14:11.000Z,280.17
2023-02-19T21:16:17.000Z,280.21
2023-02-19T21:17:44.000Z,280.21
2023-02-19T21:19:50.000Z,280.23
2023-02-19T21:21:16.000Z,280.23
2023-02-19T21:23:23.000Z,280.24
2023-02-19T21:24:49.000Z,280.24
2023-02-19T21:26:55.000Z,280.23
2023-02-19T21:28:22.000Z,280.23
2023-02-19T21:30:28.000Z,280.23
2023-02-19T21:31:55.000Z,280.23
2023-02-19T21:34:01.000Z,280.24
2023-02-19T21:35:27.000Z,280.23
2023-02-19T21:37:34.000Z,280.24
2023-02-19T21:39:00.000Z,280.24
2023-02-19T21:41:06.000Z,280.24
2023-02-19T21:43:57.000Z,280.27
2023-02-19T21:45:24.000Z,280.24
2023-02-19T21:47:30.000Z,280.23
2023-02-19T21:48:56.000Z,280.2
2023-02-19T21:51:02.000Z,280.2
2023-02-19T21:52:29.000Z,280.18
2023-02-19T21:54:35.000Z,280.17
2023-02-19T21:56:01.000Z,280.17
2023-02-19T21:58:08.000Z,280.14
2023-02-19T21:59:34.000Z,280.13
2023-02-19T22:01:40.000Z,280.12
2023-02-19T22:03:07.000Z,280.12
2023-02-19T22:05:13.000Z,280.1
2023-02-19T22:06:39.000Z,280.09
2023-02-19T22:08:46.000Z,280.06
2023-02-19T22:10:12.000Z,280.05
2023-02-19T22:12:18.000Z,280.02
2023-02-19T22:13:45.000Z,280.02
2023-02-19T22:15:51.000Z,279.99
2023-02-19T22:17:17.000Z,279.99
2023-02-19T22:19:24.000Z,279.96
2023-02-19T22:22:15.000Z,279.92
2023-02-19T22:23:41.000Z,279.91
2023-02-19T22:25:47.000Z,279.92
2023-02-19T22:27:14.000Z,279.91
2023-02-19T22:29:20.000Z,279.91
2023-02-19T22:30:47.000Z,279.91
2023-02-19T22:32:53.000Z,279.89
2023-02-19T22:34:19.000Z,279.89
2023-02-19T22:36:26.000Z,279.91
2023-02-19T22:37:52.000Z,279.89
2023-02-19T22:39:58.000Z,279.89
2023-02-19T22:41:25.000Z,279.91
2023-02-19T22:43:31.000Z,279.95
2023-02-19T22:44:58.000Z,279.93
2023-02-19T22:47:04.000Z,279.93
2023-02-19T22:48:30.000Z,279.92